sensor_id;sensor_type;location;lat;lon;timestamp;pressure;altitude;pressure_sealevel;temperature;humidity
73383;BME280;61600;48.126;11.542;2023-07-31T00:01:49;95786.28;;;20.88;50.44
73383;BME280;61600;48.126;11.542;2023-07-31T00:04:15;95787.75;;;20.98;50.84
73383;BME280;61600;48.126;11.542;2023-07-31T00:06:41;95790.28;;;21.03;50.69
73383;BME280;61600;48.126;11.542;2023-07-31T00:09:06;95791.00;;;20.88;50.79
73383;BME280;61600;48.126;11.542;2023-07-31T00:11:32;95785.69;;;20.83;51.10
73383;BME280;61600;48.126;11.542;2023-07-31T00:13:58;95785.91;;;20.90;51.36
73383;BME280;61600;48.126;11.542;2023-07-31T00:16:23;95787.56;;;20.67;51.63
73383;BME280;61600;48.126;11.542;2023-07-31T00:18:49;95784.78;;;20.79;51.21
73383;BME280;61600;48.126;11.542;2023-07-31T00:21:15;95780.03;;;20.79;50.96
73383;BME280;61600;48.126;11.542;2023-07-31T00:23:41;95780.16;;;20.83;50.76
73383;BME280;61600;48.126;11.542;2023-07-31T00:26:06;95789.63;;;20.82;51.00
73383;BME280;61600;48.126;11.542;2023-07-31T00:28:32;95776.94;;;20.81;50.91
73383;BME280;61600;48.126;11.542;2023-07-31T00:30:57;95782.13;;;20.94;50.73
73383;BME280;61600;48.126;11.542;2023-07-31T00:33:23;95781.19;;;21.03;50.43
73383;BME280;61600;48.126;11.542;2023-07-31T00:35:49;95774.84;;;21.02;50.74
73383;BME280;61600;48.126;11.542;2023-07-31T00:38:15;95774.19;;;20.81;51.09
73383;BME280;61600;48.126;11.542;2023-07-31T00:40:40;95775.31;;;20.92;50.96
73383;BME280;61600;48.126;11.542;2023-07-31T00:43:06;95771.00;;;20.55;51.31
73383;BME280;61600;48.126;11.542;2023-07-31T00:45:32;95762.34;;;20.56;51.89
73383;BME280;61600;48.126;11.542;2023-07-31T00:47:58;95766.69;;;20.69;51.54
73383;BME280;61600;48.126;11.542;2023-07-31T00:50:25;95755.31;;;20.71;51.22
73383;BME280;61600;48.126;11.542;2023-07-31T00:52:51;95768.91;;;20.64;51.45
73383;BME280;61600;48.126;11.542;2023-07-31T00:55:16;95768.19;;;20.67;51.57
73383;BME280;61600;48.126;11.542;2023-07-31T00:57:45;95764.16;;;20.52;51.28
73383;BME280;61600;48.126;11.542;2023-07-31T01:00:11;95758.75;;;20.31;51.72
73383;BME280;61600;48.126;11.542;2023-07-31T01:02:37;95759.22;;;20.33;51.99
73383;BME280;61600;48.126;11.542;2023-07-31T01:05:03;95770.16;;;20.30;52.41
73383;BME280;61600;48.126;11.542;2023-07-31T01:07:56;95759.81;;;20.51;52.05
73383;BME280;61600;48.126;11.542;2023-07-31T01:10:32;95753.94;;;20.65;51.09
73383;BME280;61600;48.126;11.542;2023-07-31T01:12:59;95754.38;;;20.67;51.49
73383;BME280;61600;48.126;11.542;2023-07-31T01:15:25;95749.06;;;20.74;51.21
73383;BME280;61600;48.126;11.542;2023-07-31T01:17:51;95748.50;;;20.80;50.64
73383;BME280;61600;48.126;11.542;2023-07-31T01:20:20;95750.09;;;20.81;50.50
73383;BME280;61600;48.126;11.542;2023-07-31T01:23:16;95743.75;;;20.93;50.29
73383;BME280;61600;48.126;11.542;2023-07-31T01:25:59;95749.28;;;20.93;50.91
73383;BME280;61600;48.126;11.542;2023-07-31T01:29:01;95744.09;;;20.91;50.69
73383;BME280;61600;48.126;11.542;2023-07-31T01:31:29;95736.22;;;21.06;50.68
73383;BME280;61600;48.126;11.542;2023-07-31T01:33:59;95728.03;;;21.09;50.87
73383;BME280;61600;48.126;11.542;2023-07-31T01:36:25;95733.81;;;21.04;50.91
73383;BME280;61600;48.126;11.542;2023-07-31T01:38:51;95729.22;;;20.96;51.09
73383;BME280;61600;48.126;11.542;2023-07-31T01:41:18;95724.84;;;20.95;50.63
73383;BME280;61600;48.126;11.542;2023-07-31T01:43:47;95722.41;;;20.93;50.54
73383;BME280;61600;48.126;11.542;2023-07-31T01:46:13;95726.22;;;21.01;50.88
73383;BME280;61600;48.126;11.542;2023-07-31T01:48:38;95726.84;;;20.70;50.58
73383;BME280;61600;48.126;11.542;2023-07-31T01:51:04;95731.09;;;20.80;51.46
73383;BME280;61600;48.126;11.542;2023-07-31T01:53:31;95722.47;;;20.81;51.03
73383;BME280;61600;48.126;11.542;2023-07-31T01:55:57;95725.59;;;20.56;51.15
73383;BME280;61600;48.126;11.542;2023-07-31T01:58:22;95721.53;;;20.77;51.40
73383;BME280;61600;48.126;11.542;2023-07-31T02:00:48;95720.72;;;20.77;50.72
73383;BME280;61600;48.126;11.542;2023-07-31T02:03:14;95727.28;;;20.84;51.16
73383;BME280;61600;48.126;11.542;2023-07-31T02:05:47;95727.88;;;20.78;51.08
73383;BME280;61600;48.126;11.542;2023-07-31T02:08:13;95722.09;;;20.83;50.91
73383;BME280;61600;48.126;11.542;2023-07-31T02:10:39;95717.75;;;20.82;51.16
73383;BME280;61600;48.126;11.542;2023-07-31T02:13:05;95719.66;;;20.93;51.04
73383;BME280;61600;48.126;11.542;2023-07-31T02:15:31;95711.03;;;20.95;50.86
73383;BME280;61600;48.126;11.542;2023-07-31T02:17:57;95707.09;;;20.96;51.14
73383;BME280;61600;48.126;11.542;2023-07-31T02:20:23;95702.38;;;20.97;50.97
73383;BME280;61600;48.126;11.542;2023-07-31T02:22:48;95701.25;;;20.85;51.16
73383;BME280;61600;48.126;11.542;2023-07-31T02:25:14;95692.69;;;20.90;51.09
73383;BME280;61600;48.126;11.542;2023-07-31T02:27:40;95698.22;;;20.90;51.42
73383;BME280;61600;48.126;11.542;2023-07-31T02:30:06;95700.75;;;20.96;51.02
73383;BME280;61600;48.126;11.542;2023-07-31T02:32:32;95695.56;;;21.06;51.05
73383;BME280;61600;48.126;11.542;2023-07-31T02:34:57;95694.53;;;20.99;51.38
73383;BME280;61600;48.126;11.542;2023-07-31T02:37:23;95696.22;;;20.75;51.98
73383;BME280;61600;48.126;11.542;2023-07-31T02:39:49;95678.53;;;20.92;51.44
73383;BME280;61600;48.126;11.542;2023-07-31T02:42:15;95678.56;;;20.80;52.05
73383;BME280;61600;48.126;11.542;2023-07-31T02:44:41;95678.75;;;20.87;51.86
73383;BME280;61600;48.126;11.542;2023-07-31T02:47:06;95681.25;;;20.64;52.37
73383;BME280;61600;48.126;11.542;2023-07-31T02:49:32;95678.13;;;20.66;52.21
73383;BME280;61600;48.126;11.542;2023-07-31T02:51:58;95678.34;;;20.73;52.23
73383;BME280;61600;48.126;11.542;2023-07-31T02:54:24;95679.50;;;20.72;53.03
73383;BME280;61600;48.126;11.542;2023-07-31T02:56:49;95678.34;;;20.73;52.83
73383;BME280;61600;48.126;11.542;2023-07-31T02:59:17;95664.78;;;20.68;53.51
73383;BME280;61600;48.126;11.542;2023-07-31T03:01:43;95662.94;;;20.72;53.53
73383;BME280;61600;48.126;11.542;2023-07-31T03:04:10;95671.66;;;20.74;53.48
73383;BME280;61600;48.126;11.542;2023-07-31T03:06:36;95673.50;;;20.70;53.87
73383;BME280;61600;48.126;11.542;2023-07-31T03:09:02;95667.25;;;20.33;54.67
73383;BME280;61600;48.126;11.542;2023-07-31T03:11:27;95673.81;;;20.28;55.28
73383;BME280;61600;48.126;11.542;2023-07-31T03:13:53;95671.50;;;20.30;55.02
73383;BME280;61600;48.126;11.542;2023-07-31T03:16:19;95675.97;;;20.35;54.89
73383;BME280;61600;48.126;11.542;2023-07-31T03:18:45;95665.16;;;20.42;55.00
73383;BME280;61600;48.126;11.542;2023-07-31T03:21:12;95664.13;;;20.47;55.14
73383;BME280;61600;48.126;11.542;2023-07-31T03:23:38;95675.50;;;20.45;55.12
73383;BME280;61600;48.126;11.542;2023-07-31T03:26:07;95674.16;;;20.39;55.23
73383;BME280;61600;48.126;11.542;2023-07-31T03:28:33;95674.47;;;20.37;55.07
73383;BME280;61600;48.126;11.542;2023-07-31T03:30:59;95674.25;;;20.30;55.28
73383;BME280;61600;48.126;11.542;2023-07-31T03:33:25;95673.88;;;20.20;55.53
73383;BME280;61600;48.126;11.542;2023-07-31T03:35:51;95677.00;;;20.18;55.30
73383;BME280;61600;48.126;11.542;2023-07-31T03:38:17;95678.38;;;20.24;55.40
73383;BME280;61600;48.126;11.542;2023-07-31T03:40:43;95687.34;;;20.21;55.43
73383;BME280;61600;48.126;11.542;2023-07-31T03:43:09;95685.97;;;19.91;55.96
73383;BME280;61600;48.126;11.542;2023-07-31T03:45:34;95684.91;;;19.83;56.31
73383;BME280;61600;48.126;11.542;2023-07-31T03:48:00;95680.13;;;20.05;56.20
73383;BME280;61600;48.126;11.542;2023-07-31T03:50:27;95683.34;;;19.50;57.90
73383;BME280;61600;48.126;11.542;2023-07-31T03:52:53;95687.06;;;19.66;57.66
73383;BME280;61600;48.126;11.542;2023-07-31T03:55:19;95680.09;;;19.92;56.94
73383;BME280;61600;48.126;11.542;2023-07-31T03:57:44;95686.19;;;19.86;56.86
73383;BME280;61600;48.126;11.542;2023-07-31T04:00:10;95687.44;;;19.76;57.07
73383;BME280;61600;48.126;11.542;2023-07-31T04:02:36;95682.84;;;19.80;57.07
73383;BME280;61600;48.126;11.542;2023-07-31T04:05:02;95672.06;;;19.87;56.87
73383;BME280;61600;48.126;11.542;2023-07-31T04:07:28;95677.34;;;19.80;57.46
73383;BME280;61600;48.126;11.542;2023-07-31T04:09:54;95677.69;;;19.91;57.13
73383;BME280;61600;48.126;11.542;2023-07-31T04:12:19;95682.41;;;19.90;57.10
73383;BME280;61600;48.126;11.542;2023-07-31T04:14:45;95669.75;;;19.89;57.02
73383;BME280;61600;48.126;11.542;2023-07-31T04:17:11;95672.50;;;19.89;57.37
73383;BME280;61600;48.126;11.542;2023-07-31T04:19:36;95670.78;;;19.97;57.36
73383;BME280;61600;48.126;11.542;2023-07-31T04:22:02;95672.50;;;19.89;57.34
73383;BME280;61600;48.126;11.542;2023-07-31T04:24:28;95675.03;;;19.94;57.54
73383;BME280;61600;48.126;11.542;2023-07-31T04:26:54;95675.22;;;19.77;57.61
73383;BME280;61600;48.126;11.542;2023-07-31T04:29:19;95680.41;;;19.79;58.05
73383;BME280;61600;48.126;11.542;2023-07-31T04:31:45;95675.34;;;19.81;57.81
73383;BME280;61600;48.126;11.542;2023-07-31T04:34:11;95675.91;;;19.74;57.91
73383;BME280;61600;48.126;11.542;2023-07-31T04:36:37;95673.75;;;19.80;57.86
73383;BME280;61600;48.126;11.542;2023-07-31T04:39:02;95671.13;;;19.83;57.94
73383;BME280;61600;48.126;11.542;2023-07-31T04:41:28;95666.84;;;19.86;57.76
73383;BME280;61600;48.126;11.542;2023-07-31T04:43:54;95673.53;;;19.97;57.69
73383;BME280;61600;48.126;11.542;2023-07-31T04:46:20;95664.91;;;19.99;57.56
73383;BME280;61600;48.126;11.542;2023-07-31T04:48:45;95672.03;;;20.00;57.93
73383;BME280;61600;48.126;11.542;2023-07-31T04:51:11;95671.22;;;19.99;57.86
73383;BME280;61600;48.126;11.542;2023-07-31T04:53:37;95668.59;;;20.03;58.05
73383;BME280;61600;48.126;11.542;2023-07-31T04:56:03;95661.59;;;20.05;57.71
73383;BME280;61600;48.126;11.542;2023-07-31T04:58:28;95662.72;;;20.04;57.96
73383;BME280;61600;48.126;11.542;2023-07-31T05:00:54;95658.13;;;20.20;57.58
73383;BME280;61600;48.126;11.542;2023-07-31T05:03:20;95657.78;;;20.10;58.45
73383;BME280;61600;48.126;11.542;2023-07-31T05:05:46;95662.28;;;20.14;57.80
73383;BME280;61600;48.126;11.542;2023-07-31T05:08:11;95661.72;;;20.09;58.16
73383;BME280;61600;48.126;11.542;2023-07-31T05:10:37;95658.69;;;20.26;57.71
73383;BME280;61600;48.126;11.542;2023-07-31T05:13:03;95666.88;;;19.98;58.21
73383;BME280;61600;48.126;11.542;2023-07-31T05:15:29;95672.53;;;20.02;58.25
73383;BME280;61600;48.126;11.542;2023-07-31T05:17:55;95674.56;;;20.17;58.01
73383;BME280;61600;48.126;11.542;2023-07-31T05:20:21;95662.59;;;20.25;57.52
73383;BME280;61600;48.126;11.542;2023-07-31T05:22:47;95674.47;;;20.37;56.62
73383;BME280;61600;48.126;11.542;2023-07-31T05:25:12;95672.53;;;20.50;56.24
73383;BME280;61600;48.126;11.542;2023-07-31T05:27:38;95667.69;;;20.35;56.75
73383;BME280;61600;48.126;11.542;2023-07-31T05:30:05;95670.56;;;20.38;56.36
73383;BME280;61600;48.126;11.542;2023-07-31T05:32:31;95661.69;;;20.57;56.18
73383;BME280;61600;48.126;11.542;2023-07-31T05:34:56;95662.25;;;20.63;55.83
73383;BME280;61600;48.126;11.542;2023-07-31T05:37:22;95652.31;;;20.74;55.43
73383;BME280;61600;48.126;11.542;2023-07-31T05:40:08;95648.81;;;20.89;54.83
73383;BME280;61600;48.126;11.542;2023-07-31T05:42:34;95658.00;;;20.41;55.22
73383;BME280;61600;48.126;11.542;2023-07-31T05:45:01;95652.34;;;20.62;54.94
73383;BME280;61600;48.126;11.542;2023-07-31T05:47:26;95652.09;;;20.67;54.67
73383;BME280;61600;48.126;11.542;2023-07-31T05:49:52;95654.91;;;20.30;55.42
73383;BME280;61600;48.126;11.542;2023-07-31T05:52:18;95656.94;;;20.70;54.47
73383;BME280;61600;48.126;11.542;2023-07-31T05:54:44;95653.13;;;20.62;54.75
73383;BME280;61600;48.126;11.542;2023-07-31T05:57:11;95658.00;;;20.65;54.21
73383;BME280;61600;48.126;11.542;2023-07-31T05:59:37;95658.13;;;20.57;54.61
73383;BME280;61600;48.126;11.542;2023-07-31T06:02:03;95650.69;;;20.73;54.39
73383;BME280;61600;48.126;11.542;2023-07-31T06:04:29;95648.63;;;20.82;54.11
73383;BME280;61600;48.126;11.542;2023-07-31T06:06:56;95648.66;;;20.98;53.64
73383;BME280;61600;48.126;11.542;2023-07-31T06:09:21;95649.09;;;20.72;54.07
73383;BME280;61600;48.126;11.542;2023-07-31T06:11:47;95654.16;;;20.82;53.45
73383;BME280;61600;48.126;11.542;2023-07-31T06:14:13;95654.28;;;21.13;53.03
73383;BME280;61600;48.126;11.542;2023-07-31T06:16:39;95650.19;;;20.95;52.79
73383;BME280;61600;48.126;11.542;2023-07-31T06:19:04;95651.63;;;21.17;52.54
73383;BME280;61600;48.126;11.542;2023-07-31T06:21:30;95663.09;;;20.91;53.13
73383;BME280;61600;48.126;11.542;2023-07-31T06:23:56;95667.50;;;21.20;52.80
73383;BME280;61600;48.126;11.542;2023-07-31T06:26:22;95661.44;;;21.02;52.63
73383;BME280;61600;48.126;11.542;2023-07-31T06:28:48;95658.31;;;21.16;52.34
73383;BME280;61600;48.126;11.542;2023-07-31T06:31:13;95651.00;;;20.83;52.40
73383;BME280;61600;48.126;11.542;2023-07-31T06:33:39;95667.28;;;20.73;53.11
73383;BME280;61600;48.126;11.542;2023-07-31T06:36:06;95660.28;;;21.03;52.25
73383;BME280;61600;48.126;11.542;2023-07-31T06:38:32;95664.66;;;21.16;52.17
73383;BME280;61600;48.126;11.542;2023-07-31T06:40:57;95667.78;;;21.03;52.48
73383;BME280;61600;48.126;11.542;2023-07-31T06:43:23;95666.88;;;20.99;52.13
73383;BME280;61600;48.126;11.542;2023-07-31T06:45:49;95668.25;;;21.32;51.41
73383;BME280;61600;48.126;11.542;2023-07-31T06:48:16;95659.41;;;21.27;51.48
73383;BME280;61600;48.126;11.542;2023-07-31T06:50:42;95659.38;;;21.55;51.02
73383;BME280;61600;48.126;11.542;2023-07-31T06:53:08;95664.16;;;21.70;50.58
73383;BME280;61600;48.126;11.542;2023-07-31T06:55:34;95664.00;;;21.51;50.92
73383;BME280;61600;48.126;11.542;2023-07-31T06:57:59;95659.94;;;21.76;50.50
73383;BME280;61600;48.126;11.542;2023-07-31T07:00:25;95646.06;;;21.45;51.10
73383;BME280;61600;48.126;11.542;2023-07-31T07:02:51;95640.00;;;21.39;50.78
73383;BME280;61600;48.126;11.542;2023-07-31T07:05:17;95647.41;;;21.51;50.03
73383;BME280;61600;48.126;11.542;2023-07-31T07:07:44;95643.44;;;21.79;49.34
73383;BME280;61600;48.126;11.542;2023-07-31T07:10:10;95646.97;;;21.64;49.84
73383;BME280;61600;48.126;11.542;2023-07-31T07:12:36;95660.72;;;21.61;50.04
73383;BME280;61600;48.126;11.542;2023-07-31T07:15:02;95653.69;;;21.79;49.23
73383;BME280;61600;48.126;11.542;2023-07-31T07:17:29;95658.06;;;21.64;50.21
73383;BME280;61600;48.126;11.542;2023-07-31T07:19:58;95656.28;;;21.56;50.48
73383;BME280;61600;48.126;11.542;2023-07-31T07:22:25;95649.75;;;21.64;49.73
73383;BME280;61600;48.126;11.542;2023-07-31T07:24:52;95652.41;;;21.45;50.44
73383;BME280;61600;48.126;11.542;2023-07-31T07:27:18;95656.09;;;21.65;49.84
73383;BME280;61600;48.126;11.542;2023-07-31T07:29:45;95662.19;;;21.86;49.45
73383;BME280;61600;48.126;11.542;2023-07-31T07:32:11;95654.03;;;21.62;49.54
73383;BME280;61600;48.126;11.542;2023-07-31T07:34:37;95651.91;;;21.86;49.32
73383;BME280;61600;48.126;11.542;2023-07-31T07:37:03;95644.31;;;21.68;49.51
73383;BME280;61600;48.126;11.542;2023-07-31T07:39:29;95645.97;;;22.00;49.17
73383;BME280;61600;48.126;11.542;2023-07-31T07:41:55;95645.94;;;21.84;49.42
73383;BME280;61600;48.126;11.542;2023-07-31T07:44:21;95642.34;;;21.53;50.00
73383;BME280;61600;48.126;11.542;2023-07-31T07:46:47;95628.25;;;21.73;49.81
73383;BME280;61600;48.126;11.542;2023-07-31T07:49:12;95637.00;;;21.60;49.83
73383;BME280;61600;48.126;11.542;2023-07-31T07:51:38;95621.09;;;22.19;48.07
73383;BME280;61600;48.126;11.542;2023-07-31T07:54:04;95624.28;;;22.37;47.59
73383;BME280;61600;48.126;11.542;2023-07-31T07:56:30;95629.06;;;22.56;47.53
73383;BME280;61600;48.126;11.542;2023-07-31T07:58:55;95617.72;;;22.45;47.28
73383;BME280;61600;48.126;11.542;2023-07-31T08:01:21;95617.28;;;22.08;47.57
73383;BME280;61600;48.126;11.542;2023-07-31T08:03:47;95613.69;;;21.76;48.61
73383;BME280;61600;48.126;11.542;2023-07-31T08:06:14;95607.25;;;22.04;48.01
73383;BME280;61600;48.126;11.542;2023-07-31T08:08:40;95602.84;;;21.71;48.56
73383;BME280;61600;48.126;11.542;2023-07-31T08:11:06;95619.59;;;22.06;48.20
73383;BME280;61600;48.126;11.542;2023-07-31T08:13:31;95607.69;;;22.21;47.13
73383;BME280;61600;48.126;11.542;2023-07-31T08:15:57;95608.91;;;22.24;48.09
73383;BME280;61600;48.126;11.542;2023-07-31T08:18:23;95607.53;;;22.49;46.84
73383;BME280;61600;48.126;11.542;2023-07-31T08:20:50;95614.44;;;22.74;46.43
73383;BME280;61600;48.126;11.542;2023-07-31T08:23:16;95619.88;;;23.06;45.57
73383;BME280;61600;48.126;11.542;2023-07-31T08:25:41;95616.13;;;22.98;45.75
73383;BME280;61600;48.126;11.542;2023-07-31T08:28:07;95615.13;;;23.25;45.19
73383;BME280;61600;48.126;11.542;2023-07-31T08:30:33;95629.13;;;23.13;44.23
73383;BME280;61600;48.126;11.542;2023-07-31T08:32:59;95619.06;;;23.24;43.90
73383;BME280;61600;48.126;11.542;2023-07-31T08:35:26;95613.97;;;23.07;44.53
73383;BME280;61600;48.126;11.542;2023-07-31T08:37:54;95608.69;;;23.02;44.11
73383;BME280;61600;48.126;11.542;2023-07-31T08:40:20;95605.00;;;23.36;43.07
73383;BME280;61600;48.126;11.542;2023-07-31T08:42:49;95610.59;;;23.17;44.11
73383;BME280;61600;48.126;11.542;2023-07-31T08:45:17;95609.56;;;23.25;44.32
73383;BME280;61600;48.126;11.542;2023-07-31T08:47:48;95608.09;;;23.12;44.58
73383;BME280;61600;48.126;11.542;2023-07-31T08:50:16;95608.75;;;23.25;44.10
73383;BME280;61600;48.126;11.542;2023-07-31T08:52:42;95592.91;;;23.25;44.48
73383;BME280;61600;48.126;11.542;2023-07-31T08:55:08;95604.09;;;23.29;45.15
73383;BME280;61600;48.126;11.542;2023-07-31T08:57:36;95597.78;;;23.51;44.47
73383;BME280;61600;48.126;11.542;2023-07-31T09:00:04;95604.22;;;23.36;44.88
73383;BME280;61600;48.126;11.542;2023-07-31T09:02:56;95601.06;;;23.37;44.39
73383;BME280;61600;48.126;11.542;2023-07-31T09:05:23;95605.56;;;23.42;44.49
73383;BME280;61600;48.126;11.542;2023-07-31T09:07:49;95619.78;;;23.21;44.45
73383;BME280;61600;48.126;11.542;2023-07-31T09:10:15;95612.47;;;23.32;44.26
73383;BME280;61600;48.126;11.542;2023-07-31T09:12:41;95603.94;;;23.41;43.99
73383;BME280;61600;48.126;11.542;2023-07-31T09:15:08;95601.00;;;23.76;43.12
73383;BME280;61600;48.126;11.542;2023-07-31T09:17:36;95605.69;;;23.95;42.90
73383;BME280;61600;48.126;11.542;2023-07-31T09:20:21;95594.38;;;23.61;42.89
73383;BME280;61600;48.126;11.542;2023-07-31T09:22:49;95598.47;;;23.67;42.99
73383;BME280;61600;48.126;11.542;2023-07-31T09:25:22;95588.34;;;23.56;43.54
73383;BME280;61600;48.126;11.542;2023-07-31T09:27:54;95589.41;;;23.70;42.18
73383;BME280;61600;48.126;11.542;2023-07-31T09:30:21;95576.00;;;23.76;42.85
73383;BME280;61600;48.126;11.542;2023-07-31T09:32:48;95586.25;;;23.72;42.83
73383;BME280;61600;48.126;11.542;2023-07-31T09:35:22;95588.47;;;23.63;43.26
73383;BME280;61600;48.126;11.542;2023-07-31T09:37:53;95576.31;;;23.71;42.59
73383;BME280;61600;48.126;11.542;2023-07-31T09:40:29;95576.97;;;23.87;42.78
73383;BME280;61600;48.126;11.542;2023-07-31T09:43:04;95579.41;;;23.88;42.51
73383;BME280;61600;48.126;11.542;2023-07-31T09:45:34;95582.41;;;24.03;42.54
73383;BME280;61600;48.126;11.542;2023-07-31T09:48:01;95575.44;;;23.89;42.61
73383;BME280;61600;48.126;11.542;2023-07-31T09:50:28;95575.25;;;23.79;42.80
73383;BME280;61600;48.126;11.542;2023-07-31T09:52:55;95575.00;;;23.87;43.12
73383;BME280;61600;48.126;11.542;2023-07-31T09:55:20;95574.78;;;24.00;42.36
73383;BME280;61600;48.126;11.542;2023-07-31T09:57:48;95559.72;;;23.52;43.10
73383;BME280;61600;48.126;11.542;2023-07-31T10:00:17;95559.66;;;23.97;42.24
73383;BME280;61600;48.126;11.542;2023-07-31T10:02:45;95552.09;;;24.17;42.25
73383;BME280;61600;48.126;11.542;2023-07-31T10:05:15;95554.88;;;23.94;42.39
73383;BME280;61600;48.126;11.542;2023-07-31T10:07:54;95557.13;;;24.11;42.27
73383;BME280;61600;48.126;11.542;2023-07-31T10:10:22;95554.28;;;23.59;43.16
73383;BME280;61600;48.126;11.542;2023-07-31T10:12:48;95535.59;;;23.82;42.28
73383;BME280;61600;48.126;11.542;2023-07-31T10:15:15;95531.25;;;24.07;42.14
73383;BME280;61600;48.126;11.542;2023-07-31T10:17:42;95513.28;;;23.75;42.39
73383;BME280;61600;48.126;11.542;2023-07-31T10:20:08;95511.09;;;24.40;40.98
73383;BME280;61600;48.126;11.542;2023-07-31T10:22:36;95491.47;;;24.03;41.51
73383;BME280;61600;48.126;11.542;2023-07-31T10:25:02;95512.13;;;24.28;40.68
73383;BME280;61600;48.126;11.542;2023-07-31T10:27:28;95503.41;;;24.60;40.01
73383;BME280;61600;48.126;11.542;2023-07-31T10:29:58;95508.94;;;24.86;39.55
73383;BME280;61600;48.126;11.542;2023-07-31T10:32:24;95502.44;;;24.78;39.21
73383;BME280;61600;48.126;11.542;2023-07-31T10:34:50;95501.66;;;25.11;39.45
73383;BME280;61600;48.126;11.542;2023-07-31T10:37:24;95502.47;;;24.82;39.77
73383;BME280;61600;48.126;11.542;2023-07-31T10:40:06;95494.06;;;25.08;38.48
73383;BME280;61600;48.126;11.542;2023-07-31T10:42:35;95504.53;;;24.85;39.19
73383;BME280;61600;48.126;11.542;2023-07-31T10:45:06;95495.25;;;25.07;39.28
73383;BME280;61600;48.126;11.542;2023-07-31T10:47:37;95499.69;;;25.12;38.50
73383;BME280;61600;48.126;11.542;2023-07-31T10:50:21;95507.50;;;25.03;39.00
73383;BME280;61600;48.126;11.542;2023-07-31T10:52:53;95493.28;;;24.78;38.23
73383;BME280;61600;48.126;11.542;2023-07-31T10:55:25;95507.78;;;24.91;38.18
73383;BME280;61600;48.126;11.542;2023-07-31T10:57:52;95496.84;;;24.75;37.29
73383;BME280;61600;48.126;11.542;2023-07-31T11:00:28;95491.66;;;24.73;38.05
73383;BME280;61600;48.126;11.542;2023-07-31T11:03:12;95480.81;;;24.65;38.54
73383;BME280;61600;48.126;11.542;2023-07-31T11:05:47;95489.03;;;25.21;37.98
73383;BME280;61600;48.126;11.542;2023-07-31T11:08:15;95498.00;;;24.41;39.02
73383;BME280;61600;48.126;11.542;2023-07-31T11:10:43;95472.22;;;24.77;38.71
73383;BME280;61600;48.126;11.542;2023-07-31T11:13:10;95479.75;;;25.10;38.11
73383;BME280;61600;48.126;11.542;2023-07-31T11:15:35;95474.75;;;24.89;38.77
73383;BME280;61600;48.126;11.542;2023-07-31T11:18:02;95464.97;;;25.02;37.72
73383;BME280;61600;48.126;11.542;2023-07-31T11:20:32;95470.81;;;24.90;38.35
73383;BME280;61600;48.126;11.542;2023-07-31T11:22:59;95454.66;;;25.47;37.11
73383;BME280;61600;48.126;11.542;2023-07-31T11:25:29;95469.69;;;25.79;37.31
73383;BME280;61600;48.126;11.542;2023-07-31T11:27:55;95464.81;;;26.23;36.52
73383;BME280;61600;48.126;11.542;2023-07-31T11:30:22;95464.97;;;25.94;36.65
73383;BME280;61600;48.126;11.542;2023-07-31T11:32:47;95462.22;;;25.97;35.95
73383;BME280;61600;48.126;11.542;2023-07-31T11:35:13;95447.13;;;26.02;36.13
73383;BME280;61600;48.126;11.542;2023-07-31T11:37:42;95457.56;;;25.57;36.57
73383;BME280;61600;48.126;11.542;2023-07-31T11:40:09;95447.31;;;25.72;36.75
73383;BME280;61600;48.126;11.542;2023-07-31T11:42:35;95446.44;;;25.61;37.24
73383;BME280;61600;48.126;11.542;2023-07-31T11:45:05;95448.41;;;25.57;37.28
73383;BME280;61600;48.126;11.542;2023-07-31T11:47:35;95445.63;;;25.60;37.53
73383;BME280;61600;48.126;11.542;2023-07-31T11:50:03;95427.56;;;25.95;36.92
73383;BME280;61600;48.126;11.542;2023-07-31T11:52:33;95417.88;;;26.47;36.04
73383;BME280;61600;48.126;11.542;2023-07-31T11:54:59;95409.88;;;26.35;36.02
73383;BME280;61600;48.126;11.542;2023-07-31T11:57:25;95413.38;;;25.59;37.17
73383;BME280;61600;48.126;11.542;2023-07-31T11:59:52;95416.13;;;26.14;37.00
73383;BME280;61600;48.126;11.542;2023-07-31T12:02:18;95398.88;;;25.94;36.16
73383;BME280;61600;48.126;11.542;2023-07-31T12:04:45;95392.34;;;26.34;35.26
73383;BME280;61600;48.126;11.542;2023-07-31T12:07:12;95393.09;;;26.24;35.54
73383;BME280;61600;48.126;11.542;2023-07-31T12:09:38;95383.38;;;26.00;34.89
73383;BME280;61600;48.126;11.542;2023-07-31T12:12:08;95385.00;;;26.08;34.54
73383;BME280;61600;48.126;11.542;2023-07-31T12:14:41;95384.44;;;26.54;34.02
73383;BME280;61600;48.126;11.542;2023-07-31T12:17:08;95374.53;;;26.74;33.47
73383;BME280;61600;48.126;11.542;2023-07-31T12:19:34;95376.50;;;26.70;33.61
73383;BME280;61600;48.126;11.542;2023-07-31T12:22:20;95376.19;;;27.07;33.19
73383;BME280;61600;48.126;11.542;2023-07-31T12:24:46;95373.00;;;27.08;32.59
73383;BME280;61600;48.126;11.542;2023-07-31T12:27:14;95371.78;;;27.73;31.63
73383;BME280;61600;48.126;11.542;2023-07-31T12:29:43;95357.81;;;27.66;31.83
73383;BME280;61600;48.126;11.542;2023-07-31T12:32:20;95361.44;;;27.45;32.45
73383;BME280;61600;48.126;11.542;2023-07-31T12:35:06;95361.41;;;27.42;32.60
73383;BME280;61600;48.126;11.542;2023-07-31T12:37:32;95349.88;;;27.18;32.79
73383;BME280;61600;48.126;11.542;2023-07-31T12:39:58;95351.06;;;27.24;33.18
73383;BME280;61600;48.126;11.542;2023-07-31T12:42:30;95343.47;;;26.83;33.65
73383;BME280;61600;48.126;11.542;2023-07-31T12:44:56;95341.50;;;27.29;33.23
73383;BME280;61600;48.126;11.542;2023-07-31T12:47:22;95339.88;;;27.03;33.45
73383;BME280;61600;48.126;11.542;2023-07-31T12:49:48;95317.13;;;27.58;33.63
73383;BME280;61600;48.126;11.542;2023-07-31T12:52:14;95320.25;;;27.81;32.03